Terminal Aerodrome Forecast
Issued by NWS

Home | Current Version | Previous Version | Text Only | Print | Product List | Glossary On
Versions: 1 2 3 4 5 6 7 8 9 10 11 12 13 14 15 16 17 18 19 20 21 22 23 24 25 26 27 28 29 30 31 32 33
000
FTUS43 KGRB 251100
TAFRHI
TAF
KRHI 251127Z 2512/2612 06008KT P6SM -SN OVC015
      TEMPO 2514/2518 BKN025
     FM251800 06005KT P6SM SCT025
     FM252300 VRB03KT P6SM SCT090
     FM260400 19004KT P6SM BKN080
     FM261100 20007KT 5SM -SN SCT025 OVC040=

USA.gov is the U.S. government's official web portal to all federal, state and local government web resources and services.